^^
Station Historical Data
Daily Summary for January 22, 2018 Units:  English    Metric   Both
« Previous Day
Next Day »
Daily Weekly Monthly Yearly Custom
  High: Low: Average:
Temperature: TemperatureF °F 59.4 °F 74.7 °F
Dew Point: DewpointF °F 32.4 °F 41.9 °F
Humidity: Humidity% 17% 35%
Wind Speed: WindSpeedMPHmph 0.0mph 2mph
Wind Gust: WindSpeedGustMPHmph - -
Wind- - WSW
Pressure: PressureIn in 29.59 in -
Precipitation: 0.00 in    
Historical Graphs
 
 
Tabular Data for January 22, 2018
Time Temperature Dew Point Pressure Wind Wind Speed Wind Gust Humidity Rainfall Rate (Hourly) solar Conditions
TemperatureF °F DewpointF °F PressureIn in Calm     Humidity% HourlyPrecipIn in SolarRadiationWatts/m^2 W/m2 Conditions
00:00 67.3 °F 46.4 °F 29.73 in Calm     47% 0.00 in 0.0 W/m2
00:05 67.5 °F 47.1 °F 29.73 in Calm     48% 0.00 in 0.0 W/m2
00:10 67.5 °F 47.1 °F 29.73 in Calm     48% 0.00 in 0.0 W/m2
00:15 67.5 °F 47.1 °F 29.73 in Calm     48% 0.00 in 0.0 W/m2
00:20 67.5 °F 46.6 °F 29.73 in Calm     47% 0.00 in 0.0 W/m2
00:25 67.5 °F 46.6 °F 29.73 in Calm     47% 0.00 in 0.0 W/m2
00:30 67.6 °F 46.8 °F 29.73 in WSW 0.9 mph 2.0 mph 47% 0.00 in 0.0 W/m2
00:35 67.6 °F 47.3 °F 29.73 in Calm   1.0 mph 48% 0.00 in 0.0 W/m2
00:40 67.6 °F 47.3 °F 29.73 in Calm   2.0 mph 48% 0.00 in 0.0 W/m2
00:56 67.6 °F 48.4 °F 29.73 in Calm   4.0 mph 50% 0.00 in 0.0 W/m2
01:01 67.6 °F 48.4 °F 29.73 in NNE 0.9 mph 2.0 mph 50% 0.00 in 0.0 W/m2
01:11 67.5 °F 48.2 °F 29.72 in NNE 2.9 mph 3.0 mph 50% 0.00 in 0.0 W/m2
01:16 67.5 °F 47.7 °F 29.72 in North 0.9 mph 3.0 mph 49% 0.00 in 0.0 W/m2
01:21 67.5 °F 48.2 °F 29.72 in Calm   1.0 mph 50% 0.00 in 0.0 W/m2
01:26 67.5 °F 48.2 °F 29.72 in Calm     50% 0.00 in 0.0 W/m2
01:31 67.3 °F 48.0 °F 29.72 in Calm     50% 0.00 in 0.0 W/m2
01:36 67.3 °F 48.6 °F 29.72 in Calm     51% 0.00 in 0.0 W/m2
01:42 67.1 °F 48.4 °F 29.72 in Calm     51% 0.00 in 0.0 W/m2
01:47 66.9 °F 48.2 °F 29.71 in Calm   2.0 mph 51% 0.00 in 0.0 W/m2
01:52 66.7 °F 48.6 °F 29.72 in Calm   1.0 mph 52% 0.00 in 0.0 W/m2
01:57 66.7 °F 49.1 °F 29.71 in Calm     53% 0.00 in 0.0 W/m2
02:02 66.6 °F 48.9 °F 29.71 in Calm     53% 0.00 in 0.0 W/m2
02:07 66.4 °F 49.3 °F 29.71 in Calm   1.0 mph 54% 0.00 in 0.0 W/m2
02:12 66.4 °F 49.6 °F 29.71 in Calm     55% 0.00 in 0.0 W/m2
02:17 66.4 °F 49.3 °F 29.71 in Calm     54% 0.00 in 0.0 W/m2
02:23 66.2 °F 49.1 °F 29.71 in SE 0.9 mph 1.0 mph 54% 0.00 in 0.0 W/m2
02:28 66.4 °F 49.6 °F 29.71 in Calm     55% 0.00 in 0.0 W/m2
02:33 66.4 °F 50.7 °F 29.71 in Calm     57% 0.00 in 0.0 W/m2
02:38 66.4 °F 50.7 °F 29.71 in Calm     57% 0.00 in 0.0 W/m2
02:43 66.2 °F 50.9 °F 29.71 in Calm     58% 0.00 in 0.0 W/m2
02:48 66.2 °F 50.9 °F 29.71 in Calm     58% 0.00 in 0.0 W/m2
02:53 66.2 °F 50.9 °F 29.71 in Calm     58% 0.00 in 0.0 W/m2
02:58 66.2 °F 50.9 °F 29.71 in Calm     58% 0.00 in 0.0 W/m2
03:03 66.0 °F 51.3 °F 29.71 in Calm     59% 0.00 in 0.0 W/m2
03:08 66.0 °F 51.8 °F 29.71 in Calm   1.0 mph 60% 0.00 in 0.0 W/m2
03:14 66.0 °F 52.2 °F 29.71 in Calm   1.0 mph 61% 0.00 in 0.0 W/m2
03:19 66.0 °F 52.7 °F 29.71 in Calm     62% 0.00 in 0.0 W/m2
03:24 65.8 °F 52.5 °F 29.70 in Calm     62% 0.00 in 0.0 W/m2
03:29 65.8 °F 52.5 °F 29.70 in Calm     62% 0.00 in 0.0 W/m2
03:34 65.7 °F 52.3 °F 29.70 in Calm     62% 0.00 in 0.0 W/m2
03:39 65.5 °F 52.2 °F 29.70 in Calm     62% 0.00 in 0.0 W/m2
03:44 65.5 °F 52.2 °F 29.71 in Calm     62% 0.00 in 0.0 W/m2
03:49 65.1 °F 52.2 °F 29.70 in Calm     63% 0.00 in 0.0 W/m2
03:55 64.9 °F 52.0 °F 29.70 in Calm     63% 0.00 in 0.0 W/m2
04:00 64.8 °F 51.8 °F 29.70 in Calm     63% 0.00 in 0.0 W/m2
04:05 64.6 °F 51.6 °F 29.70 in Calm     63% 0.00 in 0.0 W/m2
04:10 64.2 °F 51.4 °F 29.70 in Calm     63% 0.00 in 0.0 W/m2
04:15 64.0 °F 51.3 °F 29.70 in Calm     63% 0.00 in 0.0 W/m2
04:20 63.9 °F 51.1 °F 29.70 in Calm     63% 0.00 in 0.0 W/m2
04:25 63.7 °F 50.9 °F 29.70 in Calm     63% 0.00 in 0.0 W/m2
04:30 63.3 °F 49.6 °F 29.70 in Calm     61% 0.00 in 0.0 W/m2
04:40 63.0 °F 49.8 °F 29.70 in Calm     62% 0.00 in 0.0 W/m2
04:45 62.8 °F 47.8 °F 29.70 in Calm     58% 0.00 in 0.0 W/m2
04:51 62.4 °F 47.8 °F 29.70 in Calm   1.0 mph 59% 0.00 in 0.0 W/m2
04:56 62.1 °F 47.5 °F 29.70 in Calm     59% 0.00 in 0.0 W/m2
05:06 61.7 °F 48.2 °F 29.70 in Calm     61% 0.00 in 0.0 W/m2
05:11 61.5 °F 48.4 °F 29.70 in Calm     62% 0.00 in 0.0 W/m2
05:16 61.3 °F 48.2 °F 29.70 in Calm     62% 0.00 in 0.0 W/m2
05:21 61.2 °F 48.4 °F 29.70 in Calm     63% 0.00 in 0.0 W/m2
05:26 61.0 °F 48.4 °F 29.71 in Calm     63% 0.00 in 0.0 W/m2
05:31 61.0 °F 48.4 °F 29.71 in Calm   1.0 mph 63% 0.00 in 0.0 W/m2
05:37 60.6 °F 48.4 °F 29.71 in Calm     64% 0.00 in 0.0 W/m2
05:42 60.6 °F 48.7 °F 29.71 in Calm     65% 0.00 in 0.0 W/m2
05:47 60.4 °F 49.1 °F 29.71 in Calm     66% 0.00 in 0.0 W/m2
05:52 60.3 °F 48.9 °F 29.71 in Calm     66% 0.00 in 0.0 W/m2
05:57 60.3 °F 48.9 °F 29.71 in Calm   1.0 mph 66% 0.00 in 0.0 W/m2
06:07 60.1 °F 48.2 °F 29.72 in Calm   1.0 mph 65% 0.00 in 0.0 W/m2
06:12 59.9 °F 48.6 °F 29.72 in Calm   1.0 mph 66% 0.00 in 0.0 W/m2
06:23 59.5 °F 48.2 °F 29.72 in SSE 0.9 mph 1.0 mph 66% 0.00 in 0.0 W/m2
06:28 59.5 °F 48.2 °F 29.72 in Calm   1.0 mph 66% 0.00 in 0.0 W/m2
06:38 59.4 °F 48.0 °F 29.72 in Calm   1.0 mph 66% 0.00 in 9.0 W/m2
06:48 59.4 °F 47.7 °F 29.72 in Calm     65% 0.00 in 16.0 W/m2
06:53 59.4 °F 47.7 °F 29.72 in Calm     65% 0.00 in 21.0 W/m2
06:58 59.5 °F 47.8 °F 29.72 in Calm     65% 0.00 in 28.0 W/m2
07:03 59.5 °F 48.2 °F 29.72 in Calm     66% 0.00 in 33.0 W/m2
07:14 59.7 °F 48.0 °F 29.73 in East 2.0 mph 3.0 mph 65% 0.00 in 39.0 W/m2
07:19 60.1 °F 48.2 °F 29.73 in East 4.0 mph 4.0 mph 65% 0.00 in 37.0 W/m2
07:24 60.4 °F 49.1 °F 29.73 in Calm   1.0 mph 66% 0.00 in 37.0 W/m2
07:34 61.0 °F 49.5 °F 29.73 in Calm   1.0 mph 66% 0.00 in 44.0 W/m2
07:39 61.2 °F 49.6 °F 29.73 in NE 2.0 mph 4.0 mph 66% 0.00 in 51.0 W/m2
07:49 62.4 °F 50.0 °F 29.73 in NE 2.0 mph 4.0 mph 64% 0.00 in 148.0 W/m2
07:54 63.3 °F 50.0 °F 29.73 in Calm   4.0 mph 62% 0.00 in 202.0 W/m2
08:00 64.0 °F 50.4 °F 29.73 in NE 0.9 mph 2.0 mph 61% 0.00 in 220.0 W/m2
08:05 64.8 °F 50.5 °F 29.73 in Calm   2.0 mph 60% 0.00 in 302.0 W/m2
08:10 65.7 °F 51.4 °F 29.73 in East 2.0 mph 3.0 mph 60% 0.00 in 394.0 W/m2
08:15 66.7 °F 51.4 °F 29.73 in NNW 0.9 mph 1.0 mph 58% 0.00 in 348.0 W/m2
08:20 68.4 °F 52.5 °F 29.73 in NNW 2.0 mph 3.0 mph 57% 0.00 in 376.0 W/m2
08:25 69.6 °F 53.2 °F 29.73 in NNW 0.9 mph 2.0 mph 56% 0.00 in 422.0 W/m2
08:35 71.8 °F 52.2 °F 29.73 in NNW 0.9 mph 3.0 mph 50% 0.00 in 455.0 W/m2
08:40 72.5 °F 50.5 °F 29.73 in Calm   1.0 mph 46% 0.00 in 450.0 W/m2
08:45 73.2 °F 43.9 °F 29.73 in Calm   2.0 mph 35% 0.00 in 448.0 W/m2
08:56 74.5 °F 41.0 °F 29.73 in SW 0.9 mph 1.0 mph 30% 0.00 in 445.0 W/m2
09:01 74.8 °F 41.4 °F 29.73 in NNW 2.9 mph 4.0 mph 30% 0.00 in 415.0 W/m2
09:07 75.6 °F 41.0 °F 29.73 in Calm   4.0 mph 29% 0.00 in 540.0 W/m2
09:12 76.1 °F 36.7 °F 29.73 in NNE 2.9 mph 4.0 mph 24% 0.00 in 543.0 W/m2
09:17 76.6 °F 37.2 °F 29.73 in Calm   3.0 mph 24% 0.00 in 490.0 W/m2
09:22 76.6 °F 39.2 °F 29.73 in Calm   2.0 mph 26% 0.00 in 619.0 W/m2
09:27 76.6 °F 40.1 °F 29.73 in NNW 0.9 mph 2.0 mph 27% 0.00 in 640.0 W/m2
09:37 76.8 °F 38.3 °F 29.73 in Calm   1.0 mph 25% 0.00 in 647.0 W/m2
09:42 76.8 °F 38.3 °F 29.73 in West 0.9 mph 6.0 mph 25% 0.00 in 677.0 W/m2
09:47 76.8 °F 38.3 °F 29.73 in SW 0.9 mph 2.0 mph 25% 0.00 in 670.0 W/m2
09:53 77.2 °F 38.7 °F 29.73 in North 2.0 mph 4.0 mph 25% 0.00 in 761.0 W/m2
09:59 77.5 °F 37.9 °F 29.73 in WNW 4.0 mph 4.0 mph 24% 0.00 in 766.0 W/m2
10:04 78.3 °F 37.4 °F 29.73 in Calm   1.0 mph 23% 0.00 in 752.0 W/m2
10:14 79.3 °F 37.2 °F 29.73 in WNW 0.9 mph 6.0 mph 22% 0.00 in 814.0 W/m2
10:19 80.1 °F 37.8 °F 29.73 in Calm   4.0 mph 22% 0.00 in 835.0 W/m2
10:24 80.4 °F 38.1 °F 29.73 in NNW 4.0 mph 5.0 mph 22% 0.00 in 842.0 W/m2
10:34 81.0 °F 38.5 °F 29.73 in NE 2.9 mph 9.0 mph 22% 0.00 in 872.0 W/m2
10:39 81.3 °F 37.6 °F 29.73 in WNW 2.0 mph 3.0 mph 21% 0.00 in 884.0 W/m2
10:45 81.5 °F 39.0 °F 29.73 in West 2.9 mph 5.0 mph 22% 0.00 in 900.0 W/m2
10:50 81.7 °F 39.2 °F 29.73 in NNW 0.9 mph 5.0 mph 22% 0.00 in 912.0 W/m2
10:56 82.0 °F 40.6 °F 29.73 in Calm   4.0 mph 23% 0.00 in 926.0 W/m2
11:01 82.8 °F 38.8 °F 29.72 in Calm   3.0 mph 21% 0.00 in 932.0 W/m2
11:06 83.1 °F 37.9 °F 29.72 in NNW 6.0 mph 7.0 mph 20% 0.00 in 947.0 W/m2
11:11 83.3 °F 38.1 °F 29.73 in North 4.0 mph 5.0 mph 20% 0.00 in 939.0 W/m2
11:16 83.3 °F 38.1 °F 29.72 in Calm   6.0 mph 20% 0.00 in 935.0 W/m2
11:21 83.1 °F 36.7 °F 29.72 in Calm   5.0 mph 19% 0.00 in 976.0 W/m2
11:26 83.1 °F 36.7 °F 29.72 in Calm   1.0 mph 19% 0.00 in 997.0 W/m2
11:32 83.5 °F 35.6 °F 29.72 in NW 2.0 mph 5.0 mph 18% 0.00 in 991.0 W/m2
11:37 84.0 °F 37.4 °F 29.72 in Calm   5.0 mph 19% 0.00 in 1000.0 W/m2
11:42 84.6 °F 34.9 °F 29.72 in WNW 0.9 mph 8.0 mph 17% 0.00 in 1023.0 W/m2
11:52 84.9 °F 36.7 °F 29.72 in WNW 2.9 mph 7.0 mph 18% 0.00 in 1034.0 W/m2
11:57 85.5 °F 37.0 °F 29.72 in WSW 4.0 mph 5.0 mph 18% 0.00 in 1034.0 W/m2
12:02 85.1 °F 36.9 °F 29.71 in South 2.0 mph 7.0 mph 18% 0.00 in 1023.0 W/m2
12:07 84.9 °F 38.1 °F 29.72 in WNW 0.9 mph 11.0 mph 19% 0.00 in 1032.0 W/m2
12:12 85.5 °F 37.0 °F 29.71 in Calm   5.0 mph 18% 0.00 in 1046.0 W/m2
12:17 85.6 °F 37.2 °F 29.71 in SW 0.9 mph 6.0 mph 18% 0.00 in 1055.0 W/m2
12:22 85.6 °F 37.2 °F 29.71 in NNW 0.9 mph 3.0 mph 18% 0.00 in 1056.0 W/m2
12:28 86.2 °F 37.8 °F 29.71 in WNW 2.9 mph 7.0 mph 18% 0.00 in 1065.0 W/m2
12:33 85.8 °F 37.4 °F 29.71 in Calm   7.0 mph 18% 0.00 in 1065.0 W/m2
12:43 86.2 °F 37.8 °F 29.70 in North 4.9 mph 5.0 mph 18% 0.00 in 1069.0 W/m2
12:53 86.9 °F 38.3 °F 29.70 in NNW 2.9 mph 3.0 mph 18% 0.00 in 1067.0 W/m2
12:58 86.9 °F 38.3 °F 29.69 in NNE 2.0 mph 7.0 mph 18% 0.00 in 1065.0 W/m2
13:03 87.4 °F 38.7 °F 29.70 in WNW 8.9 mph 10.0 mph 18% 0.00 in 1063.0 W/m2
13:08 88.0 °F 39.2 °F 29.69 in WNW 0.9 mph 7.0 mph 18% 0.00 in 1063.0 W/m2
13:14 88.3 °F 40.8 °F 29.69 in Calm   9.0 mph 19% 0.00 in 1056.0 W/m2
13:19 88.2 °F 40.6 °F 29.69 in SSW 2.0 mph 4.0 mph 19% 0.00 in 1056.0 W/m2
13:24 88.3 °F 42.3 °F 29.68 in Calm   7.0 mph 20% 0.00 in 1058.0 W/m2
13:29 88.9 °F 41.4 °F 29.68 in NE 0.9 mph 2.0 mph 19% 0.00 in 1056.0 W/m2
13:34 89.2 °F 41.5 °F 29.68 in Calm   3.0 mph 19% 0.00 in 1055.0 W/m2
13:45 88.5 °F 41.0 °F 29.68 in WNW 2.0 mph 4.0 mph 19% 0.00 in 1035.0 W/m2
13:50 88.2 °F 39.4 °F 29.67 in North 2.9 mph 8.0 mph 18% 0.00 in 1037.0 W/m2
13:55 88.5 °F 41.0 °F 29.67 in Calm   9.0 mph 19% 0.00 in 1028.0 W/m2
14:00 89.2 °F 41.5 °F 29.67 in NNE 2.9 mph 5.0 mph 19% 0.00 in 1021.0 W/m2
14:05 89.6 °F 40.5 °F 29.67 in NNW 2.9 mph 9.0 mph 18% 0.00 in 1025.0 W/m2
14:15 90.0 °F 40.8 °F 29.66 in WNW 0.9 mph 7.0 mph 18% 0.00 in 997.0 W/m2
14:20 90.0 °F 40.8 °F 29.66 in NNW 2.9 mph 8.0 mph 18% 0.00 in 993.0 W/m2
14:30 90.3 °F 41.0 °F 29.66 in West 6.0 mph 7.0 mph 18% 0.00 in 1027.0 W/m2
14:41 89.6 °F 40.5 °F 29.65 in WNW 6.9 mph 11.0 mph 18% 0.00 in 1051.0 W/m2
14:52 88.9 °F 41.4 °F 29.65 in NNW 4.0 mph 8.0 mph 19% 0.00 in 969.0 W/m2
15:02 90.0 °F 40.8 °F 29.65 in WNW 2.0 mph 12.0 mph 18% 0.00 in 940.0 W/m2
15:07 89.8 °F 42.1 °F 29.65 in NW 4.0 mph 8.0 mph 19% 0.00 in 921.0 W/m2
15:12 90.0 °F 40.8 °F 29.65 in WNW 8.1 mph 9.0 mph 18% 0.00 in 907.0 W/m2
15:17 89.8 °F 42.1 °F 29.64 in West 2.0 mph 15.0 mph 19% 0.00 in 893.0 W/m2
15:22 90.1 °F 41.0 °F 29.64 in NNW 2.0 mph 8.0 mph 18% 0.00 in 886.0 W/m2
15:33 90.9 °F 41.5 °F 29.63 in North 2.0 mph 8.0 mph 18% 0.00 in 856.0 W/m2
15:43 90.3 °F 41.0 °F 29.62 in NNW 2.0 mph 5.0 mph 18% 0.00 in 826.0 W/m2
15:48 90.3 °F 42.4 °F 29.62 in WSW 2.0 mph 12.0 mph 19% 0.00 in 816.0 W/m2
15:53 90.9 °F 43.0 °F 29.62 in WNW 2.0 mph 9.0 mph 19% 0.00 in 800.0 W/m2
15:58 91.0 °F 43.0 °F 29.62 in WSW 2.9 mph 6.0 mph 19% 0.00 in 779.0 W/m2
16:03 91.2 °F 43.2 °F 29.62 in West 0.9 mph 11.0 mph 19% 0.00 in 765.0 W/m2
16:14 90.3 °F 42.4 °F 29.61 in SW 2.9 mph 5.0 mph 19% 0.00 in 758.0 W/m2
16:19 90.9 °F 43.0 °F 29.61 in West 2.0 mph 11.0 mph 19% 0.00 in 722.0 W/m2
16:35 90.9 °F 43.0 °F 29.61 in NW 2.9 mph 7.0 mph 19% 0.00 in 657.0 W/m2
16:40 90.3 °F 42.4 °F 29.60 in West 4.9 mph 6.0 mph 19% 0.00 in 647.0 W/m2
16:45 90.7 °F 44.1 °F 29.60 in SW 4.0 mph 10.0 mph 20% 0.00 in 629.0 W/m2
16:55 89.6 °F 43.2 °F 29.60 in West 4.9 mph 6.0 mph 20% 0.00 in 587.0 W/m2
17:01 89.8 °F 43.3 °F 29.60 in NW 0.9 mph 10.0 mph 20% 0.00 in 570.0 W/m2
17:06 89.8 °F 43.3 °F 29.60 in SW 2.0 mph 9.0 mph 20% 0.00 in 559.0 W/m2
17:11 89.1 °F 42.8 °F 29.60 in SW 4.0 mph 12.0 mph 20% 0.00 in 536.0 W/m2
17:16 88.5 °F 42.3 °F 29.60 in West 6.9 mph 10.0 mph 20% 0.00 in 512.0 W/m2
17:21 88.3 °F 42.3 °F 29.59 in West 12.1 mph 17.0 mph 20% 0.00 in 494.0 W/m2
17:26 88.3 °F 42.3 °F 29.60 in West 6.0 mph 8.0 mph 20% 0.00 in 473.0 W/m2
17:31 88.3 °F 42.3 °F 29.60 in West 6.0 mph 7.0 mph 20% 0.00 in 455.0 W/m2
17:37 88.5 °F 42.3 °F 29.60 in WSW 4.0 mph 11.0 mph 20% 0.00 in 429.0 W/m2
17:42 88.0 °F 41.9 °F 29.60 in WSW 4.9 mph 8.0 mph 20% 0.00 in 408.0 W/m2
17:47 87.6 °F 41.5 °F 29.60 in West 2.0 mph 11.0 mph 20% 0.00 in 390.0 W/m2
17:52 87.3 °F 39.9 °F 29.60 in WSW 6.9 mph 9.0 mph 19% 0.00 in 371.0 W/m2
17:57 86.9 °F 39.7 °F 29.60 in SW 2.0 mph 11.0 mph 19% 0.00 in 348.0 W/m2
18:02 86.5 °F 39.4 °F 29.60 in WNW 4.0 mph 11.0 mph 19% 0.00 in 332.0 W/m2
18:07 86.5 °F 39.4 °F 29.60 in SSW 4.0 mph 12.0 mph 19% 0.00 in 311.0 W/m2
18:12 86.2 °F 39.0 °F 29.60 in WNW 4.0 mph 11.0 mph 19% 0.00 in 290.0 W/m2
18:18 85.8 °F 38.8 °F 29.60 in West 8.9 mph 9.0 mph 19% 0.00 in 264.0 W/m2
18:23 85.6 °F 38.7 °F 29.61 in SW 2.9 mph 11.0 mph 19% 0.00 in 241.0 W/m2
18:28 85.5 °F 38.5 °F 29.61 in South 4.9 mph 13.0 mph 19% 0.00 in 213.0 W/m2
18:33 84.9 °F 39.4 °F 29.61 in WSW 8.9 mph 12.0 mph 20% 0.00 in 199.0 W/m2
18:38 84.4 °F 39.0 °F 29.61 in WSW 2.0 mph 14.0 mph 20% 0.00 in 176.0 W/m2
18:43 83.8 °F 38.5 °F 29.61 in West 6.9 mph 10.0 mph 20% 0.00 in 162.0 W/m2
18:48 83.3 °F 39.4 °F 29.62 in WSW 6.9 mph 15.0 mph 21% 0.00 in 135.0 W/m2
18:53 82.2 °F 38.5 °F 29.62 in SW 4.9 mph 11.0 mph 21% 0.00 in 104.0 W/m2
18:59 81.5 °F 39.0 °F 29.62 in WNW 8.9 mph 14.0 mph 22% 0.00 in 44.0 W/m2
19:04 81.0 °F 38.5 °F 29.62 in West 4.9 mph 7.0 mph 22% 0.00 in 28.0 W/m2
19:09 80.6 °F 38.3 °F 29.63 in SW 4.9 mph 13.0 mph 22% 0.00 in 25.0 W/m2
19:14 80.1 °F 37.8 °F 29.63 in WSW 4.9 mph 15.0 mph 22% 0.00 in 21.0 W/m2
19:19 79.3 °F 38.3 °F 29.63 in WSW 8.9 mph 9.0 mph 23% 0.00 in 16.0 W/m2
19:24 79.0 °F 37.9 °F 29.63 in WSW 8.1 mph 14.0 mph 23% 0.00 in 14.0 W/m2
19:29 78.6 °F 37.8 °F 29.64 in WSW 6.9 mph 7.0 mph 23% 0.00 in 11.0 W/m2
19:34 78.3 °F 37.4 °F 29.64 in West 2.0 mph 9.0 mph 23% 0.00 in 9.0 W/m2
19:40 77.9 °F 37.0 °F 29.64 in West 6.0 mph 9.0 mph 23% 0.00 in 5.0 W/m2
19:45 77.5 °F 36.9 °F 29.65 in West 4.9 mph 7.0 mph 23% 0.00 in 0.0 W/m2
19:50 77.2 °F 36.5 °F 29.65 in WSW 4.9 mph 5.0 mph 23% 0.00 in 0.0 W/m2
19:55 76.8 °F 36.1 °F 29.65 in West 4.9 mph 7.0 mph 23% 0.00 in 0.0 W/m2
20:00 76.5 °F 36.0 °F 29.65 in West 6.0 mph 8.0 mph 23% 0.00 in 0.0 W/m2
20:05 76.3 °F 35.8 °F 29.66 in WNW 2.9 mph 7.0 mph 23% 0.00 in 0.0 W/m2
20:10 75.9 °F 35.4 °F 29.66 in SSW 6.0 mph 7.0 mph 23% 0.00 in 0.0 W/m2
20:15 75.7 °F 36.3 °F 29.66 in SW 2.9 mph 6.0 mph 24% 0.00 in 0.0 W/m2
20:21 75.6 °F 36.3 °F 29.66 in WSW 2.0 mph 3.0 mph 24% 0.00 in 0.0 W/m2
20:26 75.2 °F 36.0 °F 29.66 in SW 2.0 mph 6.0 mph 24% 0.00 in 0.0 W/m2
20:31 75.0 °F 35.8 °F 29.66 in WSW 2.9 mph 3.0 mph 24% 0.00 in 0.0 W/m2
20:37 74.7 °F 35.4 °F 29.66 in SSW 0.9 mph 6.0 mph 24% 0.00 in 0.0 W/m2
20:42 74.5 °F 35.2 °F 29.66 in WSW 2.9 mph 5.0 mph 24% 0.00 in 0.0 W/m2
20:47 74.1 °F 34.0 °F 29.67 in SW 8.1 mph 8.1 mph 23% 0.00 in 0.0 W/m2
20:53 73.8 °F 33.6 °F 29.67 in West 2.9 mph 8.0 mph 23% 0.00 in 0.0 W/m2
20:58 73.6 °F 33.4 °F 29.67 in West 4.0 mph 7.0 mph 23% 0.00 in 0.0 W/m2
21:03 73.2 °F 33.3 °F 29.67 in WSW 4.0 mph 10.0 mph 23% 0.00 in 0.0 W/m2
21:08 73.0 °F 33.1 °F 29.67 in SW 4.9 mph 10.0 mph 23% 0.00 in 0.0 W/m2
21:13 72.9 °F 32.9 °F 29.67 in West 8.1 mph 10.0 mph 23% 0.00 in 0.0 W/m2
21:19 72.9 °F 32.9 °F 29.67 in West 2.0 mph 12.0 mph 23% 0.00 in 0.0 W/m2
21:24 72.7 °F 32.7 °F 29.67 in SW 4.0 mph 14.0 mph 23% 0.00 in 0.0 W/m2
21:29 72.7 °F 32.7 °F 29.67 in WSW 2.9 mph 7.0 mph 23% 0.00 in 0.0 W/m2
21:35 72.3 °F 32.4 °F 29.67 in WSW 4.0 mph 7.0 mph 23% 0.00 in 0.0 W/m2
21:40 72.3 °F 32.4 °F 29.68 in SW 0.9 mph 14.0 mph 23% 0.00 in 0.0 W/m2
21:45 72.1 °F 32.4 °F 29.68 in West 2.0 mph 6.0 mph 23% 0.00 in 0.0 W/m2
21:50 72.0 °F 33.3 °F 29.68 in West 8.1 mph 11.0 mph 24% 0.00 in 0.0 W/m2
21:55 71.8 °F 33.1 °F 29.68 in SSW 0.9 mph 8.0 mph 24% 0.00 in 0.0 W/m2
22:00 71.6 °F 32.9 °F 29.69 in SE 4.9 mph 8.0 mph 24% 0.00 in 0.0 W/m2
22:05 71.4 °F 33.8 °F 29.69 in West 0.9 mph 8.0 mph 25% 0.00 in 0.0 W/m2
22:10 71.2 °F 33.6 °F 29.69 in West 4.9 mph 9.0 mph 25% 0.00 in 0.0 W/m2
22:15 71.2 °F 33.6 °F 29.69 in West 4.0 mph 9.0 mph 25% 0.00 in 0.0 W/m2
22:20 71.2 °F 33.6 °F 29.69 in South 4.0 mph 4.0 mph 25% 0.00 in 0.0 W/m2
22:26 71.1 °F 33.4 °F 29.70 in SSW 2.0 mph 8.0 mph 25% 0.00 in 0.0 W/m2
22:31 71.1 °F 33.4 °F 29.70 in SW 0.9 mph 9.0 mph 25% 0.00 in 0.0 W/m2
22:36 70.9 °F 33.3 °F 29.70 in South 2.9 mph 6.0 mph 25% 0.00 in 0.0 W/m2
22:41 70.9 °F 34.3 °F 29.70 in Calm   2.0 mph 26% 0.00 in 0.0 W/m2
22:47 70.7 °F 34.2 °F 29.70 in South 0.9 mph 3.0 mph 26% 0.00 in 0.0 W/m2
22:52 70.5 °F 34.0 °F 29.70 in SW 2.0 mph 3.0 mph 26% 0.00 in 0.0 W/m2
22:57 70.5 °F 34.0 °F 29.70 in WSW 2.0 mph 3.0 mph 26% 0.00 in 0.0 W/m2
23:02 70.3 °F 33.8 °F 29.71 in Calm   2.0 mph 26% 0.00 in 0.0 W/m2
23:07 70.3 °F 33.8 °F 29.71 in Calm   1.0 mph 26% 0.00 in 0.0 W/m2
23:12 70.2 °F 34.7 °F 29.71 in Calm     27% 0.00 in 0.0 W/m2
23:17 70.0 °F 34.5 °F 29.71 in Calm     27% 0.00 in 0.0 W/m2
23:22 69.8 °F 34.3 °F 29.71 in Calm   1.0 mph 27% 0.00 in 0.0 W/m2
23:28 69.6 °F 34.2 °F 29.71 in NNW 0.9 mph 2.0 mph 27% 0.00 in 0.0 W/m2
23:33 69.6 °F 34.2 °F 29.71 in Calm   1.0 mph 27% 0.00 in 0.0 W/m2
23:38 69.4 °F 34.0 °F 29.71 in Calm   2.0 mph 27% 0.00 in 0.0 W/m2
23:43 69.4 °F 33.1 °F 29.71 in Calm   1.0 mph 26% 0.00 in 0.0 W/m2
23:48 69.6 °F 33.3 °F 29.71 in Calm   1.0 mph 26% 0.00 in 0.0 W/m2
23:53 69.6 °F 34.2 °F 29.72 in Calm   3.0 mph 27% 0.00 in 0.0 W/m2
23:58 69.4 °F 34.0 °F 29.72 in NNW 2.0 mph 2.0 mph 27% 0.00 in 0.0 W/m2
Olympia, Windhoek, Namibia
Compliments of Weather Underground - 3.25 mb